Metsaborg — PBFL — position and weather

sailwx.info

Track history (hours):
 
Tides and Currents Weather Stations Pressure Air Temp Water Temp Dewpoint Dewpoint Depression Visibility Wind Speed Wind Dir Waves Ship Positions

Metsaborg

Last reported at 2014-Oct-08 02:21 UTC. Time now 2014-Oct-21 00:39 UTC.
Position N 50°31' W 000°02'.
Warning: this ship's position is 12 days out of date.

Length 134 m; draft 7.5 m.

Type: Cargo ship. MMSI: 246270000.

Date/timePositionNaut miles runAvg speedWind from/ knotsBaromVisibWave heightAir tempDewpointWater temp
2014-Oct-08 02:21N 50°31' W 000°02'911.5
2014-Oct-08 01:33N 50°34' E 000°12'1111.0
2014-Oct-08 00:34N 50°37' E 000°28'10 9.7
2014-Oct-07 23:33N 50°41' E 000°42'9 8.6
2014-Oct-07 22:33N 50°46' E 000°53'10 8.0
2014-Oct-07 21:21N 50°52' E 001°05'7 8.5
2014-Oct-07 20:33N 50°57' E 001°13'9 9.0
2014-Oct-07 19:33N 51°03' E 001°24'1111.0
2014-Oct-07 18:33N 51°09' E 001°37'1111.4
2014-Oct-07 17:33N 51°18' E 001°50'1010.1
2014-Oct-07 16:33N 51°26' E 001°58'9 9.1
2014-Oct-07 15:33N 51°33' E 002°08'8 8.0
2014-Oct-07 14:33N 51°40' E 002°16'8 7.6
2014-Oct-07 13:33N 51°46' E 002°24'161 9.3
2014-Oct-06 20:13N 53°60' E 004°52'19 9.8
2014-Oct-06 18:15N 54°17' E 005°08'8 9.8
2014-Oct-06 17:23N 54°24' E 005°16'26110.1
2014-Oct-05 15:25N 57°48' E 010°08'1011.4
2014-Oct-05 14:34N 57°48' E 010°26'1010.3
2014-Oct-05 13:33N 57°47' E 010°45'7 6.9
2014-Oct-05 12:34N 57°41' E 010°52'1211.8
2014-Oct-05 11:33N 57°38' E 011°13'1312.9
2014-Oct-05 10:34N 57°35' E 011°37'2 2.3
2014-Oct-05 09:32N 57°36' E 011°41'0 0.0
2014-Oct-05 08:32N 57°36' E 011°41'0 0.1
2014-Oct-05 07:32N 57°36' E 011°41'3 3.0
2014-Oct-05 06:33N 57°33' E 011°38'1313.3
2014-Oct-05 05:33N 57°20' E 011°39'1312.8
2014-Oct-05 04:31N 57°07' E 011°41'1212.3
2014-Oct-05 03:31N 56°55' E 011°49'1212.2
2014-Oct-05 02:33N 56°44' E 011°55'1212.3
2014-Oct-05 01:33N 56°32' E 011°60'1212.4
2014-Oct-05 00:33N 56°20' E 012°05'1211.9
2014-Oct-04 23:33N 56°12' E 012°21'1414.2
2014-Oct-04 22:33N 56°02' E 012°40'1212.5
2014-Oct-04 21:34N 55°50' E 012°45'1312.7
2014-Oct-04 20:33N 55°38' E 012°42'1110.4
2014-Oct-04 19:30N 55°27' E 012°42'9 9.7
2014-Oct-04 18:33N 55°18' E 012°45'1212.3
2014-Oct-04 17:33N 55°16' E 013°06'1312.5
2014-Oct-04 16:30N 55°15' E 013°29'1212.7
2014-Oct-04 15:32N 55°14' E 013°50'1212.3
2014-Oct-04 14:33N 55°13' E 014°11'1111.2
2014-Oct-04 13:33N 55°20' E 014°27'1212.1
2014-Oct-04 12:34N 55°29' E 014°42'1212.0
2014-Oct-04 11:33N 55°35' E 015°00'1212.2
2014-Oct-04 10:33N 55°41' E 015°19'1212.2
2014-Oct-04 09:33N 55°47' E 015°38'1212.3
2014-Oct-04 08:32N 55°54' E 015°57'1212.2
2014-Oct-04 07:34N 55°60' E 016°16'3511.5
2014-Oct-04 04:30N 56°27' E 016°55'1212.2
2014-Oct-04 03:32N 56°38' E 017°03'1212.1
2014-Oct-04 02:33N 56°49' E 017°11'1211.9
2014-Oct-04 01:33N 57°00' E 017°19'1211.8
2014-Oct-04 00:33N 57°12' E 017°20'1211.6
2014-Oct-03 23:33N 57°23' E 017°20'9 8.6
2014-Oct-03 22:33N 57°30' E 017°09'1212.1
2014-Oct-03 21:34N 57°21' E 016°53'1110.8
2014-Oct-03 20:33N 57°16' E 016°36'4 3.7
2014-Oct-03 19:33N 57°16' E 016°29'0 0.0
2014-Oct-03 18:33N 57°16' E 016°29'0 0.0
2014-Oct-03 17:33N 57°16' E 016°29'0 0.0
2014-Oct-03 16:33N 57°16' E 016°29'0 0.0
2014-Oct-03 15:33N 57°16' E 016°29'0 0.0
2014-Oct-03 14:33N 57°16' E 016°29'0 0.0
2014-Oct-03 13:34N 57°16' E 016°29'0 0.0
2014-Oct-03 12:34N 57°16' E 016°29'0 0.0
2014-Oct-03 11:34N 57°16' E 016°29'0 0.0
2014-Oct-03 10:33N 57°16' E 016°29'0 0.0
2014-Oct-03 09:34N 57°16' E 016°29'0 0.0
2014-Oct-03 08:33N 57°16' E 016°29'0 0.0
2014-Oct-03 07:34N 57°16' E 016°29'0 0.0
2014-Oct-03 06:33N 57°16' E 016°29'0 0.0
2014-Oct-03 05:33N 57°16' E 016°29'0 0.0
2014-Oct-03 04:33N 57°16' E 016°29'0 0.0
2014-Oct-03 03:34N 57°16' E 016°29'0 0.0
2014-Oct-03 02:33N 57°16' E 016°29'0 0.0
2014-Oct-03 01:33N 57°16' E 016°29'0 0.0
2014-Oct-03 00:33N 57°16' E 016°29'0 0.0
2014-Oct-02 23:33N 57°16' E 016°29'0 0.0
2014-Oct-02 22:34N 57°16' E 016°29'0 0.0
2014-Oct-02 21:33N 57°16' E 016°29'0 0.0
2014-Oct-02 20:34N 57°16' E 016°29'0 0.0
2014-Oct-02 19:33N 57°16' E 016°29'6 5.5
2014-Oct-02 18:33N 57°16' E 016°39'1312.5
2014-Oct-02 17:33N 57°22' E 016°59'1312.8
2014-Oct-02 16:33N 57°30' E 017°17'1312.7
2014-Oct-02 15:33N 57°41' E 017°31'  
Track history (hours):
 
Tides and Currents Weather Stations Pressure Air Temp Water Temp Dewpoint Dewpoint Depression Visibility Wind Speed Wind Dir Waves Ship Positions

Metsaborg

Last reported at 2014-Oct-08 02:21 UTC. Time now 2014-Oct-21 00:39 UTC.
Position N 50°31' W 000°02'.
Warning: this ship's position is 12 days out of date.

Length 134 m; draft 7.5 m.

Type: Cargo ship. MMSI: 246270000.

Date/timePositionNaut miles runAvg speedWind from/ knotsBaromVisibWave heightAir tempDewpointWater temp
2014-Oct-08 02:21N 50°31' W 000°02'911.5
2014-Oct-08 01:33N 50°34' E 000°12'1111.0
2014-Oct-08 00:34N 50°37' E 000°28'10 9.7
2014-Oct-07 23:33N 50°41' E 000°42'9 8.6
2014-Oct-07 22:33N 50°46' E 000°53'10 8.0
2014-Oct-07 21:21N 50°52' E 001°05'7 8.5
2014-Oct-07 20:33N 50°57' E 001°13'9 9.0
2014-Oct-07 19:33N 51°03' E 001°24'1111.0
2014-Oct-07 18:33N 51°09' E 001°37'1111.4
2014-Oct-07 17:33N 51°18' E 001°50'1010.1
2014-Oct-07 16:33N 51°26' E 001°58'9 9.1
2014-Oct-07 15:33N 51°33' E 002°08'8 8.0
2014-Oct-07 14:33N 51°40' E 002°16'8 7.6
2014-Oct-07 13:33N 51°46' E 002°24'161 9.3
2014-Oct-06 20:13N 53°60' E 004°52'19 9.8
2014-Oct-06 18:15N 54°17' E 005°08'8 9.8
2014-Oct-06 17:23N 54°24' E 005°16'26110.1
2014-Oct-05 15:25N 57°48' E 010°08'1011.4
2014-Oct-05 14:34N 57°48' E 010°26'1010.3
2014-Oct-05 13:33N 57°47' E 010°45'7 6.9
2014-Oct-05 12:34N 57°41' E 010°52'1211.8
2014-Oct-05 11:33N 57°38' E 011°13'1312.9
2014-Oct-05 10:34N 57°35' E 011°37'2 2.3
2014-Oct-05 09:32N 57°36' E 011°41'0 0.0
2014-Oct-05 08:32N 57°36' E 011°41'0 0.1
2014-Oct-05 07:32N 57°36' E 011°41'3 3.0
2014-Oct-05 06:33N 57°33' E 011°38'1313.3
2014-Oct-05 05:33N 57°20' E 011°39'1312.8
2014-Oct-05 04:31N 57°07' E 011°41'1212.3
2014-Oct-05 03:31N 56°55' E 011°49'1212.2
2014-Oct-05 02:33N 56°44' E 011°55'1212.3
2014-Oct-05 01:33N 56°32' E 011°60'1212.4
2014-Oct-05 00:33N 56°20' E 012°05'1211.9
2014-Oct-04 23:33N 56°12' E 012°21'1414.2
2014-Oct-04 22:33N 56°02' E 012°40'1212.5
2014-Oct-04 21:34N 55°50' E 012°45'1312.7
2014-Oct-04 20:33N 55°38' E 012°42'1110.4
2014-Oct-04 19:30N 55°27' E 012°42'9 9.7
2014-Oct-04 18:33N 55°18' E 012°45'1212.3
2014-Oct-04 17:33N 55°16' E 013°06'1312.5
2014-Oct-04 16:30N 55°15' E 013°29'1212.7
2014-Oct-04 15:32N 55°14' E 013°50'1212.3
2014-Oct-04 14:33N 55°13' E 014°11'1111.2
2014-Oct-04 13:33N 55°20' E 014°27'1212.1
2014-Oct-04 12:34N 55°29' E 014°42'1212.0
2014-Oct-04 11:33N 55°35' E 015°00'1212.2
2014-Oct-04 10:33N 55°41' E 015°19'1212.2
2014-Oct-04 09:33N 55°47' E 015°38'1212.3
2014-Oct-04 08:32N 55°54' E 015°57'1212.2
2014-Oct-04 07:34N 55°60' E 016°16'3511.5
2014-Oct-04 04:30N 56°27' E 016°55'1212.2
2014-Oct-04 03:32N 56°38' E 017°03'1212.1
2014-Oct-04 02:33N 56°49' E 017°11'1211.9
2014-Oct-04 01:33N 57°00' E 017°19'1211.8
2014-Oct-04 00:33N 57°12' E 017°20'1211.6
2014-Oct-03 23:33N 57°23' E 017°20'9 8.6
2014-Oct-03 22:33N 57°30' E 017°09'1212.1
2014-Oct-03 21:34N 57°21' E 016°53'1110.8
2014-Oct-03 20:33N 57°16' E 016°36'4 3.7
2014-Oct-03 19:33N 57°16' E 016°29'0 0.0
2014-Oct-03 18:33N 57°16' E 016°29'0 0.0
2014-Oct-03 17:33N 57°16' E 016°29'0 0.0
2014-Oct-03 16:33N 57°16' E 016°29'0 0.0
2014-Oct-03 15:33N 57°16' E 016°29'0 0.0
2014-Oct-03 14:33N 57°16' E 016°29'0 0.0
2014-Oct-03 13:34N 57°16' E 016°29'0 0.0
2014-Oct-03 12:34N 57°16' E 016°29'0 0.0
2014-Oct-03 11:34N 57°16' E 016°29'0 0.0
2014-Oct-03 10:33N 57°16' E 016°29'0 0.0
2014-Oct-03 09:34N 57°16' E 016°29'0 0.0
2014-Oct-03 08:33N 57°16' E 016°29'0 0.0
2014-Oct-03 07:34N 57°16' E 016°29'0 0.0
2014-Oct-03 06:33N 57°16' E 016°29'0 0.0
2014-Oct-03 05:33N 57°16' E 016°29'0 0.0
2014-Oct-03 04:33N 57°16' E 016°29'0 0.0
2014-Oct-03 03:34N 57°16' E 016°29'0 0.0
2014-Oct-03 02:33N 57°16' E 016°29'0 0.0
2014-Oct-03 01:33N 57°16' E 016°29'0 0.0
2014-Oct-03 00:33N 57°16' E 016°29'0 0.0
2014-Oct-02 23:33N 57°16' E 016°29'0 0.0
2014-Oct-02 22:34N 57°16' E 016°29'0 0.0
2014-Oct-02 21:33N 57°16' E 016°29'0 0.0
2014-Oct-02 20:34N 57°16' E 016°29'0 0.0
2014-Oct-02 19:33N 57°16' E 016°29'6 5.5
2014-Oct-02 18:33N 57°16' E 016°39'1312.5
2014-Oct-02 17:33N 57°22' E 016°59'1312.8
2014-Oct-02 16:33N 57°30' E 017°17'1312.7
2014-Oct-02 15:33N 57°41' E 017°31'  

Dump ship's entire track history